Kitsap Lake, Washington
Current Conditions -  °F | °C
As of 12:55 PM on Friday 19 Dec 2014 (Local Time) from KPWT Reporting Station
Broken Clouds Broken Clouds  
Wind Chill: 43°   Ceiling: 3200
Heat Index: 48°   Visibility: 10mi
Dew Point: 45°   Wind: 12mph
Humidity: 87%   Direction: 170°S
Pressure: 29.96"   Gusts: NA
Location:  47.5691°N, 122.818°W
Report Text: KPWT 192055Z AUTO 17010KT 10SM FEW015 SCT024 BKN032 09/07 A2996 RMK AO1 60004 52010
Loading
Personal Weather Stations






























Interactive Weather Map New forecast layout! Learn more

10-Day Weather Forecast

Advertisements
Track Severe Weather on mobile